Time;durP1;ratioP1;P1;durP2;ratioP2;P2;SDS_P1;SDS_P2;PMS_P1;PMS_P2;Temp;Humidity;BMP_temperature;BMP_pressure;BME280_temperature;BME280_humidity;BME280_pressure;Samples;Min_cycle;Max_cycle;Signal;HPM_P1;HPM_P2
2021/10/26 00:02:03;;;;;;;9.10;5.22;;;;;;;;;;5094586;28;20032;-81
2021/10/26 00:04:32;;;;;;;8.80;5.85;;;;;;;;;;5094623;28;20016;-78
2021/10/26 00:06:58;;;;;;;11.88;7.32;;;;;;;;;;5094346;28;20062;-78
2021/10/26 00:09:24;;;;;;;12.98;8.15;;;;;;;;;;5094647;28;20463;-81
2021/10/26 00:11:52;;;;;;;16.15;9.02;;;;;;;;;;5094388;28;20028;-81
2021/10/26 00:14:21;;;;;;;15.85;9.35;;;;;;;;;;5093163;28;20031;-79
2021/10/26 00:16:48;;;;;;;16.60;10.40;;;;;;;;;;5094295;28;20107;-78
2021/10/26 00:19:14;;;;;;;21.25;11.40;;;;;;;;;;5094149;28;20035;-81
2021/10/26 00:21:40;;;;;;;16.25;9.45;;;;;;;;;;5094224;28;20103;-81
2021/10/26 00:24:07;;;;;;;10.50;8.02;;;;;;;;;;5094178;28;20395;-78
2021/10/26 00:26:33;;;;;;;14.05;9.85;;;;;;;;;;5094208;28;20020;-80
2021/10/26 00:28:59;;;;;;;15.73;9.20;;;;;;;;;;5093730;28;20020;-82
2021/10/26 00:31:29;;;;;;;9.63;6.13;;;;;;;;;;5094127;28;20016;-81
2021/10/26 00:33:55;;;;;;;9.07;6.50;;;;;;;;;;5094352;28;20016;-79
2021/10/26 00:36:21;;;;;;;10.60;6.07;;;;;;;;;;5092585;28;20035;-80
2021/10/26 00:38:47;;;;;;;9.30;6.85;;;;;;;;;;5094148;28;20024;-79
2021/10/26 00:41:14;;;;;;;10.73;7.35;;;;;;;;;;5094083;28;20097;-80
2021/10/26 00:43:41;;;;;;;9.75;7.55;;;;;;;;;;5094123;28;20024;-78
2021/10/26 00:46:07;;;;;;;13.85;9.23;;;;;;;;;;5093897;28;20020;-81
2021/10/26 00:48:33;;;;;;;14.40;9.65;;;;;;;;;;5093951;28;20499;-78
2021/10/26 00:50:59;;;;;;;15.05;10.23;;;;;;;;;;5093869;28;20455;-80
2021/10/26 00:53:26;;;;;;;14.82;9.27;;;;;;;;;;5092724;28;20474;-78
2021/10/26 00:55:52;;;;;;;13.27;8.88;;;;;;;;;;5093741;28;20020;-79
2021/10/26 00:58:19;;;;;;;17.38;11.50;;;;;;;;;;5093593;28;20024;-80
2021/10/26 01:00:48;;;;;;;18.05;11.05;;;;;;;;;;5092380;28;20024;-81
2021/10/26 01:03:14;;;;;;;20.02;10.63;;;;;;;;;;5093739;28;20032;-81
2021/10/26 01:05:40;;;;;;;16.02;9.15;;;;;;;;;;5093783;28;20080;-81
2021/10/26 01:08:07;;;;;;;18.15;10.38;;;;;;;;;;5093709;28;20378;-79
2021/10/26 01:10:34;;;;;;;11.55;7.30;;;;;;;;;;5092294;28;20024;-84
2021/10/26 01:13:03;;;;;;;11.00;7.60;;;;;;;;;;5093693;28;20016;-81
2021/10/26 01:15:29;;;;;;;11.60;6.78;;;;;;;;;;5092346;28;20375;-80
2021/10/26 01:17:55;;;;;;;13.95;8.07;;;;;;;;;;5093633;28;20028;-84
2021/10/26 01:20:22;;;;;;;11.05;7.55;;;;;;;;;;5093433;28;20048;-81
2021/10/26 01:22:48;;;;;;;35.85;20.08;;;;;;;;;;5093390;28;20020;-80
2021/10/26 01:25:14;;;;;;;28.17;14.48;;;;;;;;;;5093760;28;20016;-82
2021/10/26 01:27:44;;;;;;;38.63;24.23;;;;;;;;;;5092006;28;20119;-80
2021/10/26 01:30:11;;;;;;;17.90;10.23;;;;;;;;;;5093574;28;20476;-79
2021/10/26 01:32:38;;;;;;;12.77;7.75;;;;;;;;;;5093466;28;20032;-82
2021/10/26 01:35:04;;;;;;;13.05;6.68;;;;;;;;;;5093253;28;20035;-80
2021/10/26 01:37:33;;;;;;;10.80;6.85;;;;;;;;;;5092650;28;20028;-82
2021/10/26 01:40:00;;;;;;;12.07;6.57;;;;;;;;;;5093409;28;20024;-81
2021/10/26 01:42:59;;;;;;;;;;;;;;;;;;;;;
2021/10/26 01:48:32;;;;;;;10.70;6.20;;;;;;;;;;5097246;28;20434;-81
2021/10/26 01:51:00;;;;;;;11.02;6.90;;;;;;;;;;5096840;28;20536;-81
2021/10/26 01:53:29;;;;;;;31.27;15.65;;;;;;;;;;5097241;28;20030;-79
2021/10/26 01:55:55;;;;;;;28.73;15.15;;;;;;;;;;5097088;28;20091;-79
2021/10/26 01:58:21;;;;;;;40.85;17.90;;;;;;;;;;5096863;28;20023;-79
2021/10/26 02:00:47;;;;;;;14.40;9.70;;;;;;;;;;5097159;28;20083;-81
2021/10/26 02:03:13;;;;;;;10.55;7.30;;;;;;;;;;5096845;28;20024;-79
2021/10/26 02:05:40;;;;;;;12.15;7.68;;;;;;;;;;5097032;28;20024;-84
2021/10/26 02:08:06;;;;;;;13.50;8.65;;;;;;;;;;5096613;28;20027;-82
2021/10/26 02:10:32;;;;;;;12.50;7.38;;;;;;;;;;5096997;28;20020;-78
2021/10/26 02:12:58;;;;;;;9.63;6.82;;;;;;;;;;5096782;28;20024;-81
2021/10/26 02:15:24;;;;;;;15.32;8.95;;;;;;;;;;5096755;28;20020;-79
2021/10/26 02:17:50;;;;;;;14.02;9.18;;;;;;;;;;5095548;28;20413;-79
2021/10/26 02:20:17;;;;;;;13.43;8.43;;;;;;;;;;5096674;28;20062;-81
2021/10/26 02:22:43;;;;;;;14.10;8.40;;;;;;;;;;5095369;28;20028;-81
2021/10/26 02:25:09;;;;;;;13.27;9.68;;;;;;;;;;5095364;28;20501;-81
2021/10/26 02:27:35;;;;;;;12.75;8.68;;;;;;;;;;5096353;28;20024;-81
2021/10/26 02:30:01;;;;;;;12.65;8.80;;;;;;;;;;5096503;28;20382;-82
2021/10/26 02:32:27;;;;;;;14.73;8.60;;;;;;;;;;5095201;28;20024;-81
2021/10/26 02:34:56;;;;;;;13.38;9.73;;;;;;;;;;5096251;28;20077;-78
2021/10/26 02:37:22;;;;;;;15.00;11.00;;;;;;;;;;5096446;28;20104;-83
2021/10/26 02:39:48;;;;;;;14.43;12.18;;;;;;;;;;5096275;28;20032;-83
2021/10/26 02:42:14;;;;;;;17.33;10.32;;;;;;;;;;5096141;28;20024;-82
2021/10/26 02:44:40;;;;;;;12.63;8.75;;;;;;;;;;5096148;28;20032;-80
2021/10/26 02:47:06;;;;;;;13.93;8.98;;;;;;;;;;5094844;28;20073;-85
2021/10/26 02:49:32;;;;;;;10.90;6.82;;;;;;;;;;5096013;28;20021;-81
2021/10/26 02:51:59;;;;;;;13.35;7.80;;;;;;;;;;5095746;28;20031;-80
2021/10/26 02:54:28;;;;;;;11.50;8.02;;;;;;;;;;5096270;28;20471;-83
2021/10/26 02:56:54;;;;;;;13.65;7.97;;;;;;;;;;5095802;28;20390;-81
2021/10/26 02:59:21;;;;;;;12.60;7.55;;;;;;;;;;5095979;28;20077;-80
2021/10/26 03:01:47;;;;;;;17.17;13.00;;;;;;;;;;5096110;28;20028;-83
2021/10/26 03:04:14;;;;;;;16.65;12.18;;;;;;;;;;5095877;28;20031;-81
2021/10/26 03:06:40;;;;;;;15.50;10.15;;;;;;;;;;5095932;28;20379;-81
2021/10/26 03:09:06;;;;;;;10.85;9.23;;;;;;;;;;5094620;28;20024;-83
2021/10/26 03:11:32;;;;;;;15.35;10.05;;;;;;;;;;5095564;28;20020;-82
2021/10/26 03:14:01;;;;;;;12.05;9.57;;;;;;;;;;5095316;28;20073;-81
2021/10/26 03:16:27;;;;;;;21.58;11.82;;;;;;;;;;5095590;28;20127;-79
2021/10/26 03:18:55;;;;;;;16.48;11.55;;;;;;;;;;5095668;28;20028;-82
2021/10/26 03:21:29;;;;;;;18.40;15.70;;;;;;;;;;5094885;28;20486;-81
2021/10/26 03:23:55;;;;;;;17.08;13.40;;;;;;;;;;5095363;28;20510;-81
2021/10/26 03:26:21;;;;;;;12.70;9.30;;;;;;;;;;5093899;28;20032;-83
2021/10/26 03:28:49;;;;;;;16.25;11.48;;;;;;;;;;5093984;28;20032;-80
2021/10/26 03:31:18;;;;;;;28.70;18.63;;;;;;;;;;5095219;28;20028;-80
2021/10/26 03:33:46;;;;;;;35.53;21.85;;;;;;;;;;5095126;28;20463;-82
2021/10/26 03:36:12;;;;;;;32.97;19.73;;;;;;;;;;5095203;28;20028;-80
2021/10/26 03:38:41;;;;;;;28.17;17.48;;;;;;;;;;5094964;28;20024;-81
2021/10/26 03:41:07;;;;;;;20.80;13.93;;;;;;;;;;5095304;28;20020;-82
2021/10/26 03:43:33;;;;;;;21.25;14.68;;;;;;;;;;5094994;28;20479;-79
2021/10/26 03:45:59;;;;;;;26.92;19.13;;;;;;;;;;5095143;28;20080;-82
2021/10/26 03:48:27;;;;;;;37.15;23.98;;;;;;;;;;5094899;28;20174;-81
2021/10/26 03:50:53;;;;;;;98.45;40.88;;;;;;;;;;5094903;28;20028;-81
2021/10/26 03:53:20;;;;;;;99.05;39.10;;;;;;;;;;5093489;28;20027;-81
2021/10/26 03:55:46;;;;;;;38.30;25.67;;;;;;;;;;5095405;28;20020;-79
2021/10/26 03:58:12;;;;;;;28.00;19.35;;;;;;;;;;5094618;28;20390;-81
2021/10/26 04:00:38;;;;;;;17.60;12.82;;;;;;;;;;5094682;28;20031;-81
2021/10/26 04:03:05;;;;;;;21.85;12.80;;;;;;;;;;5094118;28;20043;-80
2021/10/26 04:05:44;;;;;;;21.80;13.85;;;;;;;;;;5094651;28;20016;-81
2021/10/26 04:08:25;;;;;;;20.75;12.57;;;;;;;;;;5094525;28;20020;-81
2021/10/26 04:10:54;;;;;;;23.25;12.15;;;;;;;;;;5094718;28;20494;-81
2021/10/26 04:13:20;;;;;;;25.05;14.15;;;;;;;;;;5094624;28;20024;-81
2021/10/26 04:15:47;;;;;;;22.20;12.70;;;;;;;;;;5094398;28;20497;-79
2021/10/26 04:18:13;;;;;;;21.42;13.30;;;;;;;;;;5094624;28;20023;-82
2021/10/26 04:20:39;;;;;;;23.42;14.50;;;;;;;;;;5094447;28;20044;-80
2021/10/26 04:23:06;;;;;;;20.70;13.27;;;;;;;;;;5094714;28;20016;-81
2021/10/26 04:25:34;;;;;;;17.85;12.98;;;;;;;;;;5095029;28;20046;-85
2021/10/26 04:28:04;;;;;;;24.08;15.55;;;;;;;;;;5094455;28;20093;-80
2021/10/26 04:30:33;;;;;;;20.75;14.43;;;;;;;;;;5094693;28;20374;-82
2021/10/26 04:33:00;;;;;;;25.83;17.15;;;;;;;;;;5093470;28;20456;-80
2021/10/26 04:35:26;;;;;;;37.28;21.83;;;;;;;;;;5093778;28;20032;-82
2021/10/26 04:37:54;;;;;;;38.05;24.15;;;;;;;;;;5093699;28;20024;-81
2021/10/26 04:40:23;;;;;;;45.50;26.63;;;;;;;;;;5094827;28;20031;-83
2021/10/26 04:42:49;;;;;;;34.60;22.38;;;;;;;;;;5094252;28;20121;-80
2021/10/26 04:45:17;;;;;;;34.92;22.30;;;;;;;;;;5094482;28;20031;-84
2021/10/26 04:47:44;;;;;;;41.58;30.08;;;;;;;;;;5094001;28;20020;-81
2021/10/26 04:50:11;;;;;;;62.47;40.53;;;;;;;;;;5094552;28;20020;-82
2021/10/26 04:52:38;;;;;;;48.55;30.85;;;;;;;;;;5094362;28;20423;-84
2021/10/26 04:55:04;;;;;;;41.63;27.95;;;;;;;;;;5093195;28;20028;-81
2021/10/26 04:57:30;;;;;;;34.30;23.20;;;;;;;;;;5094182;28;20020;-80
2021/10/26 04:59:58;;;;;;;42.42;25.48;;;;;;;;;;5094440;28;20428;-85
2021/10/26 05:02:27;;;;;;;46.10;30.27;;;;;;;;;;5094284;28;20078;-84
2021/10/26 05:04:53;;;;;;;39.85;26.30;;;;;;;;;;5094506;28;20050;-79
2021/10/26 05:07:19;;;;;;;32.75;22.30;;;;;;;;;;5094098;28;20066;-79
2021/10/26 05:09:45;;;;;;;38.28;26.35;;;;;;;;;;5094133;28;20020;-82
2021/10/26 05:12:12;;;;;;;29.08;20.55;;;;;;;;;;5092610;28;20020;-81
2021/10/26 05:14:39;;;;;;;31.83;19.98;;;;;;;;;;5093752;28;20028;-83
2021/10/26 05:17:06;;;;;;;29.38;19.13;;;;;;;;;;5097783;28;20020;-79
2021/10/26 05:19:33;;;;;;;56.83;38.63;;;;;;;;;;5097449;28;20083;-80
2021/10/26 05:21:59;;;;;;;45.05;31.00;;;;;;;;;;5097453;28;20020;-83
2021/10/26 05:24:30;;;;;;;38.35;28.50;;;;;;;;;;5094980;28;20024;-81
2021/10/26 05:26:58;;;;;;;47.47;29.95;;;;;;;;;;5095792;28;20115;-78
2021/10/26 05:29:25;;;;;;;48.50;32.03;;;;;;;;;;5096399;28;20544;-77
2021/10/26 05:31:52;;;;;;;44.42;29.00;;;;;;;;;;5097213;28;20416;-79
2021/10/26 05:34:21;;;;;;;46.95;30.50;;;;;;;;;;5097236;28;20442;-79
2021/10/26 05:36:47;;;;;;;63.05;43.70;;;;;;;;;;5096724;28;20024;-82
2021/10/26 05:39:14;;;;;;;65.80;41.97;;;;;;;;;;5095692;28;20074;-78
2021/10/26 05:41:40;;;;;;;71.30;42.28;;;;;;;;;;5096767;28;20387;-79
2021/10/26 05:44:06;;;;;;;73.50;44.60;;;;;;;;;;5096498;28;20078;-83
2021/10/26 05:46:33;;;;;;;64.00;40.05;;;;;;;;;;5097475;28;20024;-85
2021/10/26 05:49:10;;;;;;;;;;;;;;;;;;;;;
2021/10/26 05:52:17;;;;;;;44.20;29.95;;;;;;;;;;5095637;28;20016;-81
2021/10/26 05:55:24;;;;;;;;;;;;;;;;;;;;;
2021/10/26 05:58:42;;;;;;;;;;;;;;;;;;;;;
2021/10/26 06:04:01;;;;;;;82.70;50.03;;;;;;;;;;5080761;28;20020;-81
2021/10/26 06:06:29;;;;;;;96.82;56.35;;;;;;;;;;5093651;28;20034;-81
2021/10/26 06:08:58;;;;;;;94.60;57.08;;;;;;;;;;5095029;28;20032;-78
2021/10/26 06:11:25;;;;;;;91.75;60.53;;;;;;;;;;5093685;28;20028;-82
2021/10/26 06:14:12;;;;;;;110.90;70.75;;;;;;;;;;5075054;28;20009;-81
2021/10/26 06:16:41;;;;;;;87.38;55.65;;;;;;;;;;5079423;28;20386;-79
2021/10/26 06:19:10;;;;;;;64.88;42.08;;;;;;;;;;5080696;28;20492;-82
2021/10/26 06:21:36;;;;;;;111.07;65.80;;;;;;;;;;5078073;28;20028;-85
2021/10/26 06:24:02;;;;;;;95.55;58.30;;;;;;;;;;5093661;28;20051;-83
2021/10/26 06:26:39;;;;;;;85.68;56.78;;;;;;;;;;5094344;28;20073;-83
2021/10/26 06:29:14;;;;;;;68.68;48.22;;;;;;;;;;5094265;28;20474;-83
2021/10/26 06:31:45;;;;;;;65.72;44.90;;;;;;;;;;5095061;28;20059;-83
2021/10/26 06:34:11;;;;;;;67.15;47.95;;;;;;;;;;5093135;28;20024;-67
2021/10/26 06:36:47;;;;;;;58.22;40.08;;;;;;;;;;5094832;28;20058;-81
2021/10/26 06:39:23;;;;;;;;;;;;;;;;;;;;;
2021/10/26 06:42:00;;;;;;;42.80;30.38;;;;;;;;;;5094465;28;20382;-83
2021/10/26 06:44:59;;;;;;;;;;;;;;;;;;;;;
2021/10/26 06:47:55;;;;;;;33.67;24.88;;;;;;;;;;5094176;28;20028;-85
2021/10/26 06:56:24;;;;;;;;;;;;;;;;;;;;;
2021/10/26 06:58:53;;;;;;;31.83;22.98;;;;;;;;;;5094638;28;20042;-84
2021/10/26 07:01:19;;;;;;;35.40;26.38;;;;;;;;;;5094270;28;20028;-85
2021/10/26 07:04:01;;;;;;;58.33;32.17;;;;;;;;;;5094024;28;20028;-80
2021/10/26 07:19:16;;;;;;;43.15;26.33;;;;;;;;;;4991845;28;20087;-82
2021/10/26 07:21:49;;;;;;;27.88;18.17;;;;;;;;;;4982881;28;20058;-82
2021/10/26 07:27:16;;;;;;;16.88;12.07;;;;;;;;;;5020780;28;20558;-82
2021/10/26 07:30:21;;;;;;;;;;;;;;;;;;;;;
2021/10/26 07:33:15;;;;;;;16.75;12.32;;;;;;;;;;5030915;28;20030;-81
2021/10/26 07:38:44;;;;;;;13.63;9.90;;;;;;;;;;4999942;28;20408;-83
2021/10/26 07:41:40;;;;;;;;;;;;;;;;;;;;;
2021/10/26 07:44:25;;;;;;;15.18;10.63;;;;;;;;;;5031224;28;20684;-82
2021/10/26 07:47:21;;;;;;;;;;;;;;;;;;;;;
2021/10/26 07:59:22;;;;;;;15.95;9.27;;;;;;;;;;5093124;28;20592;-80
2021/10/26 08:01:48;;;;;;;12.98;8.13;;;;;;;;;;5093113;28;20501;-73
2021/10/26 08:04:29;;;;;;;10.05;6.90;;;;;;;;;;5093103;28;20042;-81
2021/10/26 08:06:55;;;;;;;14.02;9.18;;;;;;;;;;5092774;28;20514;-82
2021/10/26 08:09:22;;;;;;;17.73;12.80;;;;;;;;;;5093043;28;20479;-82
2021/10/26 08:11:50;;;;;;;13.25;9.00;;;;;;;;;;5093909;28;20051;-81
2021/10/26 08:14:19;;;;;;;12.57;9.05;;;;;;;;;;5093317;28;20027;-78
2021/10/26 08:16:46;;;;;;;11.32;7.20;;;;;;;;;;5093213;28;20058;-85
2021/10/26 08:19:19;;;;;;;9.68;6.53;;;;;;;;;;5086440;28;20055;-81
2021/10/26 08:21:48;;;;;;;10.43;6.95;;;;;;;;;;5072283;28;20021;-82
2021/10/26 08:24:15;;;;;;;9.90;5.95;;;;;;;;;;5083768;28;20027;-81
2021/10/26 08:26:47;;;;;;;9.05;6.20;;;;;;;;;;5092253;28;20036;-79
2021/10/26 08:37:02;;;;;;;13.27;7.55;;;;;;;;;;5092404;28;20050;-85
2021/10/26 08:39:28;;;;;;;8.25;6.80;;;;;;;;;;5091443;28;20434;-82
2021/10/26 08:41:59;;;;;;;10.32;6.88;;;;;;;;;;5092531;28;20024;-84
2021/10/26 08:44:25;;;;;;;18.52;8.07;;;;;;;;;;5093348;28;20073;-81
2021/10/26 08:46:51;;;;;;;20.85;11.05;;;;;;;;;;5092241;28;20063;-77
2021/10/26 08:49:18;;;;;;;17.70;9.57;;;;;;;;;;5091501;28;20094;-77
2021/10/26 08:51:47;;;;;;;7.47;4.93;;;;;;;;;;5089240;28;20480;-81
2021/10/26 08:54:16;;;;;;;10.07;6.05;;;;;;;;;;5084582;28;20033;-82
2021/10/26 08:56:45;;;;;;;8.98;5.72;;;;;;;;;;5070783;28;20115;-82
2021/10/26 08:59:16;;;;;;;11.02;5.43;;;;;;;;;;5070332;28;20044;-82
2021/10/26 09:01:47;;;;;;;10.57;5.97;;;;;;;;;;5071671;28;20044;-81
2021/10/26 09:04:13;;;;;;;11.30;4.90;;;;;;;;;;5071684;28;20032;-78
2021/10/26 09:06:43;;;;;;;10.05;5.30;;;;;;;;;;5071479;28;20318;-81
2021/10/26 09:09:29;;;;;;;12.35;8.10;;;;;;;;;;5071853;28;20016;-81
2021/10/26 09:17:27;;;;;;;10.65;6.35;;;;;;;;;;5071949;28;20039;-78
2021/10/26 09:20:00;;;;;;;9.68;5.18;;;;;;;;;;5074595;28;20051;-81
2021/10/26 09:22:27;;;;;;;7.20;4.63;;;;;;;;;;5071680;28;20570;-85
2021/10/26 09:24:55;;;;;;;6.45;5.13;;;;;;;;;;5090054;28;20016;-81
2021/10/26 09:27:24;;;;;;;8.30;4.55;;;;;;;;;;5092995;28;20095;-80
2021/10/26 09:29:51;;;;;;;7.95;5.47;;;;;;;;;;5090759;28;20104;-79
2021/10/26 09:32:21;;;;;;;12.45;8.18;;;;;;;;;;5090495;28;20030;-82
2021/10/26 09:34:50;;;;;;;9.80;6.10;;;;;;;;;;5090877;28;20024;-78
2021/10/26 09:37:17;;;;;;;6.80;4.28;;;;;;;;;;5074462;28;20031;-77
2021/10/26 09:39:55;;;;;;;9.55;3.63;;;;;;;;;;5079347;28;20030;-78
2021/10/26 09:42:21;;;;;;;5.75;3.38;;;;;;;;;;5091448;28;20020;-80
2021/10/26 09:44:49;;;;;;;8.10;3.63;;;;;;;;;;5091659;28;20027;-78
2021/10/26 09:47:23;;;;;;;5.57;3.13;;;;;;;;;;5092216;28;20052;-82
2021/10/26 09:49:49;;;;;;;;;;;;;;;;;;5092007;28;20024;-79
2021/10/26 09:52:36;;;;;;;6.10;4.18;;;;;;;;;;5091636;28;19911;-79
2021/10/26 09:57:40;;;;;;;6.22;3.42;;;;;;;;;;5071393;28;20029;-80
2021/10/26 10:00:07;;;;;;;5.57;3.13;;;;;;;;;;5079059;28;20553;-81
2021/10/26 10:02:43;;;;;;;9.98;3.92;;;;;;;;;;5085255;28;20075;-83
2021/10/26 10:05:21;;;;;;;7.68;3.58;;;;;;;;;;5091346;28;20035;-83
2021/10/26 10:07:47;;;;;;;4.85;2.90;;;;;;;;;;5091225;28;20445;-81
2021/10/26 10:10:13;;;;;;;9.25;4.00;;;;;;;;;;5087004;28;20017;-82
2021/10/26 10:13:08;;;;;;;5.60;3.45;;;;;;;;;;5084595;28;20032;-84
2021/10/26 10:15:38;;;;;;;7.00;3.25;;;;;;;;;;5093449;28;20477;-82
2021/10/26 10:18:06;;;;;;;6.20;3.00;;;;;;;;;;5091341;28;20039;-82
2021/10/26 10:20:33;;;;;;;13.52;4.15;;;;;;;;;;5093396;28;20052;-79
2021/10/26 10:23:04;;;;;;;5.00;3.03;;;;;;;;;;5094703;28;20024;-83
2021/10/26 10:43:36;;;;;;;6.55;3.85;;;;;;;;;;4857206;29;20025;-69
2021/10/26 10:46:02;;;;;;;7.80;2.75;;;;;;;;;;4918912;29;20069;-82
2021/10/26 10:48:29;;;;;;;5.32;2.55;;;;;;;;;;4968299;28;20037;-81
2021/10/26 10:51:14;;;;;;;4.05;2.00;;;;;;;;;;5025838;28;20026;-84
2021/10/26 10:53:40;;;;;;;7.05;2.63;;;;;;;;;;5082519;28;20086;-84
2021/10/26 10:56:13;;;;;;;4.13;1.67;;;;;;;;;;5093466;28;20092;-84
2021/10/26 10:58:40;;;;;;;10.90;2.50;;;;;;;;;;5091213;28;20031;-83
2021/10/26 11:04:29;;;;;;;7.47;2.72;;;;;;;;;;5030288;28;20021;-82
2021/10/26 11:07:01;;;;;;;7.67;3.13;;;;;;;;;;5028076;28;20045;-83
2021/10/26 11:12:17;;;;;;;7.47;2.55;;;;;;;;;;5028698;28;20072;-85
2021/10/26 11:14:53;;;;;;;12.52;3.50;;;;;;;;;;5023201;28;20043;-82
2021/10/26 11:17:42;;;;;;;4.57;2.63;;;;;;;;;;5085668;28;20056;-86
2021/10/26 11:20:32;;;;;;;4.90;2.05;;;;;;;;;;5101922;28;20039;-83
2021/10/26 11:26:05;;;;;;;;;;;;;;;;;;;;;
2021/10/26 11:28:34;;;;;;;7.93;2.38;;;;;;;;;;5093310;28;20024;-81
2021/10/26 11:31:16;;;;;;;;;;;;;;;;;;;;;
2021/10/26 11:34:01;;;;;;;3.40;2.03;;;;;;;;;;5077242;28;20027;-84
2021/10/26 11:36:34;;;;;;;5.32;2.10;;;;;;;;;;5071374;28;20542;-83
2021/10/26 11:39:01;;;;;;;11.48;3.05;;;;;;;;;;5072936;28;20045;-85
2021/10/26 11:41:28;;;;;;;5.50;3.67;;;;;;;;;;5072656;28;20035;-82
2021/10/26 11:43:56;;;;;;;11.15;8.23;;;;;;;;;;5072831;28;20051;-81
2021/10/26 11:46:30;;;;;;;7.78;4.75;;;;;;;;;;5072658;28;20023;-83
2021/10/26 11:48:59;;;;;;;7.60;4.50;;;;;;;;;;5086149;28;20020;-86
2021/10/26 11:51:28;;;;;;;4.88;2.60;;;;;;;;;;5092196;28;20031;-81
2021/10/26 11:53:55;;;;;;;16.38;3.45;;;;;;;;;;5093854;28;20032;-82
2021/10/26 11:56:29;;;;;;;5.30;1.95;;;;;;;;;;5093241;28;20051;-80
2021/10/26 11:59:00;;;;;;;10.48;2.58;;;;;;;;;;5093746;28;20379;-80
2021/10/26 12:01:51;;;;;;;4.43;2.47;;;;;;;;;;5092208;28;20046;-81
2021/10/26 12:04:20;;;;;;;7.57;2.30;;;;;;;;;;5077080;28;20020;-78
2021/10/26 12:06:47;;;;;;;9.23;2.33;;;;;;;;;;5076118;28;20081;-83
2021/10/26 12:09:16;;;;;;;6.45;2.85;;;;;;;;;;5073363;28;20093;-80
2021/10/26 12:11:44;;;;;;;7.47;2.78;;;;;;;;;;5089909;28;20035;-81
2021/10/26 12:14:11;;;;;;;4.18;2.58;;;;;;;;;;5074688;28;20024;-78
2021/10/26 12:16:37;;;;;;;4.25;2.00;;;;;;;;;;5073918;28;20601;-82
2021/10/26 12:19:03;;;;;;;3.65;1.92;;;;;;;;;;5096180;28;20526;-85
2021/10/26 12:21:30;;;;;;;5.07;2.38;;;;;;;;;;5092628;28;20103;-84
2021/10/26 12:23:56;;;;;;;7.50;3.40;;;;;;;;;;5092439;28;20103;-78
2021/10/26 12:26:23;;;;;;;5.28;3.03;;;;;;;;;;5092434;28;20024;-81
2021/10/26 12:28:55;;;;;;;5.22;2.75;;;;;;;;;;5092565;28;20043;-84
2021/10/26 12:31:25;;;;;;;4.82;2.05;;;;;;;;;;5091794;28;20046;-81
2021/10/26 12:34:01;;;;;;;5.38;2.00;;;;;;;;;;5074623;28;20107;-81
2021/10/26 12:36:28;;;;;;;8.70;2.17;;;;;;;;;;5087789;28;20039;-81
2021/10/26 12:39:08;;;;;;;5.40;3.00;;;;;;;;;;5098779;28;20111;-77
2021/10/26 12:41:37;;;;;;;6.38;2.80;;;;;;;;;;5098607;28;20435;-83
2021/10/26 12:44:08;;;;;;;4.15;1.70;;;;;;;;;;5092015;28;20020;-80
2021/10/26 12:46:36;;;;;;;3.83;1.40;;;;;;;;;;5093076;28;20031;-83
2021/10/26 12:49:11;;;;;;;3.80;2.00;;;;;;;;;;5092236;28;20138;-80
2021/10/26 12:51:39;;;;;;;;;;;;;;;;;;5092829;28;20028;-82
2021/10/26 12:54:19;;;;;;;6.55;3.35;;;;;;;;;;5092373;28;19934;-82
2021/10/26 12:56:46;;;;;;;5.10;1.90;;;;;;;;;;5090562;28;20031;-81
2021/10/26 12:59:17;;;;;;;9.27;2.35;;;;;;;;;;5092024;28;20029;-82
2021/10/26 13:01:43;;;;;;;4.30;2.75;;;;;;;;;;5089055;28;20111;-80
2021/10/26 13:04:15;;;;;;;14.18;2.38;;;;;;;;;;5092665;28;20095;-80
2021/10/26 13:06:49;;;;;;;3.90;1.52;;;;;;;;;;5092143;28;20028;-83
2021/10/26 13:09:25;;;;;;;14.52;5.13;;;;;;;;;;5101068;28;20028;-81
2021/10/26 13:12:01;;;;;;;27.08;11.80;;;;;;;;;;5090295;28;20028;-80
2021/10/26 13:14:40;;;;;;;5.13;2.58;;;;;;;;;;5092413;28;20020;-82
2021/10/26 13:17:22;;;;;;;4.85;1.60;;;;;;;;;;5092289;28;20031;-81
2021/10/26 13:19:48;;;;;;;6.50;2.15;;;;;;;;;;5088281;28;20067;-80
2021/10/26 13:22:15;;;;;;;3.92;1.83;;;;;;;;;;5075562;28;20029;-72
2021/10/26 13:24:41;;;;;;;8.10;2.53;;;;;;;;;;5072258;28;20032;-82
2021/10/26 13:27:12;;;;;;;3.25;1.85;;;;;;;;;;5088500;28;20483;-81
2021/10/26 13:29:56;;;;;;;;;;;;;;;;;;;;;
2021/10/26 13:32:44;;;;;;;6.95;1.60;;;;;;;;;;5093130;28;20374;-80
2021/10/26 13:35:29;;;;;;;;;;;;;;;;;;;;;
2021/10/26 13:38:06;;;;;;;3.63;1.23;;;;;;;;;;5094319;28;20031;-81
2021/10/26 13:40:45;;;;;;;5.32;1.00;;;;;;;;;;5095631;28;20032;-82
2021/10/26 13:43:12;;;;;;;5.00;2.38;;;;;;;;;;5085598;28;20035;-81
2021/10/26 13:45:40;;;;;;;5.20;1.65;;;;;;;;;;5092124;28;20548;-80
2021/10/26 13:48:12;;;;;;;6.38;2.55;;;;;;;;;;5101888;28;20032;-80
2021/10/26 13:50:38;;;;;;;6.78;1.38;;;;;;;;;;5103631;28;20038;-82
2021/10/26 13:53:05;;;;;;;3.55;1.52;;;;;;;;;;5096232;28;20118;-82
2021/10/26 13:55:31;;;;;;;3.60;1.40;;;;;;;;;;5096946;28;20032;-81
2021/10/26 13:57:58;;;;;;;6.88;1.45;;;;;;;;;;5108611;28;20024;-80
2021/10/26 14:00:25;;;;;;;38.67;24.20;;;;;;;;;;5110473;28;20391;-83
2021/10/26 14:02:53;;;;;;;7.55;5.28;;;;;;;;;;5105348;28;20074;-83
2021/10/26 14:05:19;;;;;;;2.95;1.63;;;;;;;;;;5095693;28;20020;-82
2021/10/26 14:07:48;;;;;;;8.70;2.00;;;;;;;;;;5092915;28;20032;-83
2021/10/26 14:10:16;;;;;;;3.67;1.50;;;;;;;;;;5095851;28;20032;-82
2021/10/26 14:12:45;;;;;;;3.70;1.60;;;;;;;;;;5095628;28;20028;-82
2021/10/26 14:15:12;;;;;;;4.15;1.63;;;;;;;;;;5095692;28;20020;-83
2021/10/26 14:17:39;;;;;;;5.63;1.88;;;;;;;;;;5079675;28;20445;-84
2021/10/26 14:20:07;;;;;;;7.50;2.67;;;;;;;;;;5075075;28;20471;-81
2021/10/26 14:22:33;;;;;;;2.72;1.38;;;;;;;;;;5074217;28;20119;-82
2021/10/26 14:24:59;;;;;;;5.25;2.47;;;;;;;;;;5075091;28;20028;-83
2021/10/26 14:27:25;;;;;;;5.28;1.60;;;;;;;;;;5075321;28;20420;-81
2021/10/26 14:29:52;;;;;;;3.72;2.05;;;;;;;;;;5082989;28;20035;-80
2021/10/26 14:32:20;;;;;;;4.65;2.13;;;;;;;;;;5095609;28;20415;-81
2021/10/26 14:34:49;;;;;;;3.58;2.20;;;;;;;;;;5094015;28;20032;-81
2021/10/26 14:37:29;;;;;;;5.20;2.60;;;;;;;;;;5095277;28;20111;-81
2021/10/26 14:58:19;;;;;;;3.28;1.65;;;;;;;;;;5074811;28;20021;-81
2021/10/26 15:00:46;;;;;;;5.45;1.75;;;;;;;;;;5089958;28;20055;-82
2021/10/26 15:03:14;;;;;;;3.58;2.17;;;;;;;;;;5094780;28;20021;-80
2021/10/26 15:05:41;;;;;;;4.78;2.13;;;;;;;;;;5094873;28;20495;-81
2021/10/26 15:08:09;;;;;;;4.72;1.70;;;;;;;;;;5094533;28;20032;-82
2021/10/26 15:13:16;;;;;;;7.18;1.70;;;;;;;;;;5094650;28;20028;-82
2021/10/26 15:15:42;;;;;;;6.80;2.20;;;;;;;;;;5099374;28;20020;-82
2021/10/26 15:18:09;;;;;;;5.38;1.60;;;;;;;;;;5092987;28;20039;-83
2021/10/26 15:20:45;;;;;;;6.65;2.05;;;;;;;;;;5089972;28;20097;-83
2021/10/26 15:23:22;;;;;;;6.60;2.70;;;;;;;;;;5089546;28;20052;-83
2021/10/26 15:34:04;;;;;;;14.07;5.15;;;;;;;;;;5094208;28;20042;-83
2021/10/26 15:36:32;;;;;;;10.70;4.40;;;;;;;;;;5092525;28;20028;-83
2021/10/26 15:38:58;;;;;;;8.18;3.15;;;;;;;;;;5094011;28;20494;-83
2021/10/26 15:41:25;;;;;;;5.88;2.97;;;;;;;;;;5100602;28;20110;-82
2021/10/26 15:43:54;;;;;;;4.55;2.60;;;;;;;;;;5092909;28;20073;-82
2021/10/26 15:46:23;;;;;;;5.45;2.80;;;;;;;;;;5092145;28;20016;-82
2021/10/26 15:48:49;;;;;;;4.18;2.75;;;;;;;;;;5091677;28;20020;-82
2021/10/26 15:51:21;;;;;;;4.47;2.70;;;;;;;;;;5091615;28;20024;-82
2021/10/26 15:53:47;;;;;;;5.07;2.90;;;;;;;;;;5089620;28;20367;-81
2021/10/26 15:56:13;;;;;;;4.97;2.80;;;;;;;;;;5093442;28;20012;-82
2021/10/26 15:58:39;;;;;;;6.63;2.80;;;;;;;;;;5094180;28;20073;-83
2021/10/26 16:01:08;;;;;;;11.40;6.65;;;;;;;;;;5088650;28;20024;-83
2021/10/26 16:03:39;;;;;;;12.70;5.72;;;;;;;;;;5078436;28;20471;-83
2021/10/26 16:06:36;;;;;;;13.48;5.88;;;;;;;;;;5083132;28;20035;-83
2021/10/26 16:09:37;;;;;;;;;;;;;;;;;;;;;
2021/10/26 16:12:46;;;;;;;;;;;;;;;;;;;;;
2021/10/26 16:18:03;;;;;;;19.73;11.48;;;;;;;;;;5094020;28;20038;-83
2021/10/26 16:20:58;;;;;;;25.67;16.35;;;;;;;;;;5092387;28;20059;-82
2021/10/26 16:26:31;;;;;;;28.08;15.20;;;;;;;;;;5011556;28;20045;-82
2021/10/26 16:32:52;;;;;;;11.23;7.07;;;;;;;;;;5000867;28;20402;-82
2021/10/26 16:41:12;;;;;;;17.33;13.95;;;;;;;;;;5009193;28;20492;-79
2021/10/26 16:43:45;;;;;;;79.20;41.45;;;;;;;;;;5056449;28;20049;-81
2021/10/26 16:48:37;;;;;;;37.78;22.27;;;;;;;;;;5091732;28;20108;-79
2021/10/26 16:51:03;;;;;;;36.88;21.13;;;;;;;;;;5090279;28;20024;-82
2021/10/26 16:53:30;;;;;;;33.63;22.25;;;;;;;;;;5091751;28;20441;-82
2021/10/26 16:55:58;;;;;;;28.67;19.27;;;;;;;;;;5088580;28;20383;-80
2021/10/26 16:58:24;;;;;;;9.55;6.32;;;;;;;;;;5085954;28;20025;-81
2021/10/26 17:00:55;;;;;;;12.48;7.40;;;;;;;;;;5091694;28;20016;-80
2021/10/26 17:03:23;;;;;;;26.00;20.38;;;;;;;;;;5091390;28;20051;-79
2021/10/26 17:05:49;;;;;;;24.48;19.13;;;;;;;;;;5092534;28;20046;-79
2021/10/26 17:08:17;;;;;;;21.52;14.35;;;;;;;;;;5092926;28;20031;-80
2021/10/26 17:10:54;;;;;;;17.90;13.23;;;;;;;;;;5094426;28;20024;-80
2021/10/26 17:13:21;;;;;;;18.00;13.80;;;;;;;;;;5099549;28;20420;-81
2021/10/26 17:15:50;;;;;;;19.33;13.40;;;;;;;;;;5099364;28;20055;-80